Cortez, CO

5:39 AM MDT on July 24, 2016 (GMT -0600)
Kelly Place BnB - McElmo Canyon | | Change Station

Elev 5522 ft 37.34 °N, 108.79 °W | Updated 8 minutes ago

Clear
Clear
70.5 °F
Feels Like 77 °F
N
6.9
Wind Variable Wind from ENE
Gusts 6.9 mph

Today
High -- | Low -- °F
--% Chance of Precip.
Yesterday
High -- | Low -- °F
Precip. -- in
Pressure 29.91 in
Visibility 10.0 miles
Clouds Clear
Heat Index 77 °F
Dew Point 43 °F
Humidity 37%
Rainfall 0.00 in
Snow Depth Not available.
6:13 AM 8:29 PM
Waning Gibbous, 77% visible
METAR KCEZ 241053Z AUTO 05006KT 10SM CLR 17/07 A3019 RMK AO2 SLP126 T01670067 $
Pressure 29.91 in
Visibility 10.0 miles
Clouds Clear
Heat Index 77 °F
Dew Point 43 °F
Humidity 37%
Rainfall 0.00 in
Snow Depth Not available.
6:13 AM 8:29 PM
Waning Gibbous, 77% visible
METAR KCEZ 241053Z AUTO 05006KT 10SM CLR 17/07 A3019 RMK AO2 SLP126 T01670067 $

10-Day Weather Forecast

Almanac

Astronomy

Jul. 24, 2016 Rise Set
Actual Time
Civil Twilight
Nautical Twilight
Astronomical Twilight
Moon
Length of Visible Light
Length of Day
Tomorrow will be .
, % of the Moon is Illuminated

Today's Extremes

State Highs State Lows

Community

WunderPhotos

Upload Photos

1,927,048 photos uploaded!

WunderBlog® & News

Nearby

Air Quality

  Air Quality AQ Index Pollutant
Not available.

Snow Depth

Station Depth Elevation

Earthquake Activity

City Distance Mag. Time & Date
Minimum magnitude displayed is 2.5.

Coastal Water Temperatures

Place Temperature

Stations

Nearby Weather Stations

Station Location Temp. Windchill Dew Point Humidity Wind Precip. Elev Updated Type
                   

Watches & Warnings

There are currently no watches in effect.